Time;durP1;ratioP1;P1;durP2;ratioP2;P2;SDS_P1;SDS_P2;PMS_P1;PMS_P2;Temp;Humidity;BMP_temperature;BMP_pressure;BME280_temperature;BME280_humidity;BME280_pressure;Samples;Min_cycle;Max_cycle;Signal;HPM_P1;HPM_P2
2022/03/17 00:00:08;;;;;;;;;;;;;;;6.50;77.15;96993.00;4946232;29;19962;-73
2022/03/17 00:02:35;;;;;;;;;;;;;;;6.47;76.80;96993.38;4942164;29;19956;-73
2022/03/17 00:05:02;;;;;;;;;;;;;;;6.46;77.06;96999.56;4949922;29;19945;-73
2022/03/17 00:07:30;;;;;;;;;;;;;;;6.45;76.90;96997.97;4932932;29;19953;-74
2022/03/17 00:09:56;;;;;;;;;;;;;;;6.43;76.83;97007.75;4950423;29;19953;-73
2022/03/17 00:12:22;;;;;;;;;;;;;;;6.43;76.70;97001.72;4945005;29;19962;-72
2022/03/17 00:14:47;;;;;;;;;;;;;;;6.40;76.88;96995.06;4944718;29;20344;-73
2022/03/17 00:17:13;;;;;;;;;;;;;;;6.38;77.02;96991.81;4950473;29;20057;-71
2022/03/17 00:19:39;;;;;;;;;;;;;;;6.36;76.85;96993.00;4948193;29;19954;-72
2022/03/17 00:22:08;;;;;;;;;;;;;;;6.35;76.84;96986.97;4946226;29;19952;-72
2022/03/17 00:24:36;;;;;;;;;;;;;;;6.32;76.77;96989.94;4942321;29;20409;-72
2022/03/17 00:27:03;;;;;;;;;;;;;;;6.29;76.89;96992.91;4950167;29;19971;-72
2022/03/17 00:29:29;;;;;;;;;;;;;;;6.27;77.05;96977.44;4950317;29;20319;-72
2022/03/17 00:31:55;;;;;;;;;;;;;;;6.26;77.13;96978.44;4939869;29;19958;-71
2022/03/17 00:34:20;;;;;;;;;;;;;;;6.24;76.96;96980.41;4950910;29;19963;-72
2022/03/17 00:36:47;;;;;;;;;;;;;;;6.23;77.05;96981.38;4950039;29;20015;-72
2022/03/17 00:39:15;;;;;;;;;;;;;;;6.23;77.10;96967.56;4941894;29;19954;-73
2022/03/17 00:41:41;;;;;;;;;;;;;;;6.22;77.37;96968.56;4943975;29;19963;-74
2022/03/17 00:44:07;;;;;;;;;;;;;;;6.22;77.47;96969.34;4946317;29;19966;-73
2022/03/17 00:46:33;;;;;;;;;;;;;;;6.23;77.22;96972.75;4949659;29;19951;-72
2022/03/17 00:48:59;;;;;;;;;;;;;;;6.20;77.32;96973.94;4946226;29;19961;-73
2022/03/17 00:51:26;;;;;;;;;;;;;;;6.20;77.37;96978.34;4943542;29;20030;-73
2022/03/17 00:53:52;;;;;;;;;;;;;;;6.18;77.40;96982.91;4924758;29;19962;-72
2022/03/17 00:56:18;;;;;;;;;;;;;;;6.19;77.67;96989.72;4945783;29;19969;-73
2022/03/17 00:58:45;;;;;;;;;;;;;;;6.18;77.49;96985.53;4947494;29;20342;-73
2022/03/17 01:01:13;;;;;;;;;;;;;;;6.17;77.70;96981.28;4946747;29;19959;-71
2022/03/17 01:03:40;;;;;;;;;;;;;;;6.17;77.70;96983.88;4926532;29;19963;-72
2022/03/17 01:06:06;;;;;;;;;;;;;;;6.17;77.81;96978.69;4944443;29;20021;-71
2022/03/17 01:08:32;;;;;;;;;;;;;;;6.17;77.73;96978.69;4945011;29;20041;-72
2022/03/17 01:10:58;;;;;;;;;;;;;;;6.15;77.76;96980.66;4944953;29;19956;-72
2022/03/17 01:13:24;;;;;;;;;;;;;;;6.15;77.76;96984.06;4948194;29;19965;-72
2022/03/17 01:15:49;;;;;;;;;;;;;;;6.15;77.81;96983.25;4944209;29;20366;-72
2022/03/17 01:18:15;;;;;;;;;;;;;;;6.13;77.81;96985.22;4944931;29;19971;-72
2022/03/17 01:20:41;;;;;;;;;;;;;;;6.10;77.88;96986.38;4946905;29;19991;-72
2022/03/17 01:23:07;;;;;;;;;;;;;;;6.12;77.82;96991.44;4950655;29;19996;-72
2022/03/17 01:25:33;;;;;;;;;;;;;;;6.09;77.92;96975.16;4948218;29;19983;-72
2022/03/17 01:27:59;;;;;;;;;;;;;;;6.08;78.02;96985.75;4944609;29;20431;-72
2022/03/17 01:30:26;;;;;;;;;;;;;;;6.06;77.80;96978.13;4943439;29;19958;-72
2022/03/17 01:32:52;;;;;;;;;;;;;;;6.05;77.76;96979.13;4950216;29;19957;-72
2022/03/17 01:35:17;;;;;;;;;;;;;;;6.02;77.79;96979.44;4946611;29;20045;-72
2022/03/17 01:37:43;;;;;;;;;;;;;;;6.03;78.02;96977.69;4941169;29;20053;-73
2022/03/17 01:40:10;;;;;;;;;;;;;;;6.02;77.90;96982.06;4942809;29;20335;-72
2022/03/17 01:42:36;;;;;;;;;;;;;;;6.01;78.13;96977.84;4941748;29;20408;-72
2022/03/17 01:45:02;;;;;;;;;;;;;;;6.02;78.35;96981.25;4950290;29;19961;-72
2022/03/17 01:47:28;;;;;;;;;;;;;;;6.02;78.04;96978.66;4946779;29;19948;-73
2022/03/17 01:49:54;;;;;;;;;;;;;;;6.01;77.90;96970.03;4946517;29;19960;-72
2022/03/17 01:52:20;;;;;;;;;;;;;;;6.01;78.07;96972.63;4942635;29;20294;-72
2022/03/17 01:54:46;;;;;;;;;;;;;;;6.00;78.13;96971.00;4946175;29;19961;-72
2022/03/17 01:57:12;;;;;;;;;;;;;;;6.00;78.19;96970.19;4951100;29;19993;-72
2022/03/17 01:59:40;;;;;;;;;;;;;;;5.99;78.06;96968.59;4947677;29;20374;-72
2022/03/17 02:02:08;;;;;;;;;;;;;;;5.98;77.86;96972.97;4942511;29;19959;-72
2022/03/17 02:04:35;;;;;;;;;;;;;;;5.98;78.12;96974.78;4947206;29;19963;-72
2022/03/17 02:07:03;;;;;;;;;;;;;;;5.96;78.14;96972.34;4949196;29;19964;-74
2022/03/17 02:09:29;;;;;;;;;;;;;;;5.97;78.34;96973.97;4943546;29;19963;-72
2022/03/17 02:14:49;;;;;;;;;;;;;;;5.96;78.64;96967.13;4948325;29;20404;-72
2022/03/17 02:17:15;;;;;;;;;;;;;;;5.97;78.36;96981.78;4948875;29;19964;-72
2022/03/17 02:19:41;;;;;;;;;;;;;;;5.94;78.44;96974.28;4950859;29;20331;-73
2022/03/17 02:22:10;;;;;;;;;;;;;;;5.93;78.33;96977.06;4945599;29;19963;-73
2022/03/17 02:27:20;;;;;;;;;;;;;;;5.89;78.29;96987.03;4936322;29;19957;-72
2022/03/17 02:29:46;;;;;;;;;;;;;;;5.87;78.37;96988.97;4947155;29;19951;-72
2022/03/17 02:32:12;;;;;;;;;;;;;;;5.87;78.44;96989.78;4942934;29;19956;-72
2022/03/17 02:34:38;;;;;;;;;;;;;;;5.85;78.31;96996.97;4952955;29;19954;-72
2022/03/17 02:37:04;;;;;;;;;;;;;;;5.86;78.55;96997.78;4954933;29;20039;-72
2022/03/17 02:39:30;;;;;;;;;;;;;;;5.85;78.47;96990.94;4935339;29;19970;-72
2022/03/17 02:41:56;;;;;;;;;;;;;;;5.84;78.45;96990.16;4948435;29;20324;-72
2022/03/17 02:44:21;;;;;;;;;;;;;;;5.85;78.49;96990.94;4928766;29;19963;-73
2022/03/17 02:46:47;;;;;;;;;;;;;;;5.81;78.71;96990.47;4953749;29;20008;-72
2022/03/17 02:49:15;;;;;;;;;;;;;;;5.81;78.52;96987.88;4952806;29;20005;-72
2022/03/17 02:51:42;;;;;;;;;;;;;;;5.82;78.71;96992.13;4947245;29;19966;-72
2022/03/17 02:54:08;;;;;;;;;;;;;;;5.82;78.88;96989.50;4945526;29;19956;-72
2022/03/17 02:56:34;;;;;;;;;;;;;;;5.83;78.81;96985.91;4945634;29;19964;-71
2022/03/17 02:58:59;;;;;;;;;;;;;;;5.83;78.91;96995.53;4953680;29;19969;-72
2022/03/17 03:01:25;;;;;;;;;;;;;;;5.83;78.88;96983.31;4949188;29;20037;-72
2022/03/17 03:03:51;;;;;;;;;;;;;;;5.84;78.92;96991.94;4941620;29;19955;-73
2022/03/17 03:06:17;;;;;;;;;;;;;;;5.85;79.19;96994.34;4947889;29;20343;-72
2022/03/17 03:08:43;;;;;;;;;;;;;;;5.86;79.02;96993.38;4946795;29;20003;-72
2022/03/17 03:11:09;;;;;;;;;;;;;;;5.87;79.09;96996.78;4934563;29;20008;-72
2022/03/17 03:13:36;;;;;;;;;;;;;;;5.87;79.24;96995.00;4947710;29;20417;-72
2022/03/17 03:16:02;;;;;;;;;;;;;;;5.87;79.05;96999.41;4929755;29;19948;-72
2022/03/17 03:18:28;;;;;;;;;;;;;;;5.87;79.11;97000.19;4944617;29;19970;-72
2022/03/17 03:20:54;;;;;;;;;;;;;;;5.87;78.97;96996.78;4946085;29;19997;-71
2022/03/17 03:23:20;;;;;;;;;;;;;;;5.86;79.18;97005.59;4950186;29;19967;-71
2022/03/17 03:25:46;;;;;;;;;;;;;;;5.87;79.20;97002.00;4947776;29;20436;-71
2022/03/17 03:28:12;;;;;;;;;;;;;;;5.86;79.24;97008.19;4948226;29;19960;-71
2022/03/17 03:30:38;;;;;;;;;;;;;;;5.87;79.22;97010.59;4943946;29;19966;-72
2022/03/17 03:33:06;;;;;;;;;;;;;;;5.87;79.24;97010.59;4946775;29;20319;-72
2022/03/17 03:38:18;;;;;;;;;;;;;;;5.89;79.37;97008.66;4947466;29;19981;-71
2022/03/17 03:40:45;;;;;;;;;;;;;;;5.90;79.46;97018.09;4947744;29;19964;-71
2022/03/17 03:43:11;;;;;;;;;;;;;;;5.92;79.39;97020.50;4947509;29;19949;-73
2022/03/17 03:45:37;;;;;;;;;;;;;;;5.91;79.40;97024.09;4941067;29;19962;-73
2022/03/17 03:48:05;;;;;;;;;;;;;;;5.92;78.94;97017.88;4950728;29;21369;-73
2022/03/17 03:50:31;;;;;;;;;;;;;;;5.93;79.21;97023.94;4949601;29;20299;-73
2022/03/17 03:52:57;;;;;;;;;;;;;;;5.93;79.27;97029.94;4948027;29;19955;-72
2022/03/17 03:55:23;;;;;;;;;;;;;;;5.94;79.30;97033.34;4945181;29;20407;-72
2022/03/17 03:57:50;;;;;;;;;;;;;;;5.93;79.22;97026.53;4946307;29;19981;-72
2022/03/17 04:02:43;;;;;;;;;;;;;;;5.93;79.05;97036.94;4946304;29;19955;-71
2022/03/17 04:05:10;;;;;;;;;;;;;;;5.93;79.00;97034.34;4943621;29;19955;-71
2022/03/17 04:07:37;;;;;;;;;;;;;;;5.92;79.05;97032.72;4942540;29;20386;-72
2022/03/17 04:10:04;;;;;;;;;;;;;;;5.92;79.11;97040.53;4947199;29;19955;-72
2022/03/17 04:12:29;;;;;;;;;;;;;;;5.93;78.82;97034.34;4946446;29;19952;-72
2022/03/17 04:14:56;;;;;;;;;;;;;;;5.93;79.03;97039.56;4948164;29;20460;-72
2022/03/17 04:17:23;;;;;;;;;;;;;;;5.92;79.01;97038.72;4946012;29;19956;-72
2022/03/17 04:19:49;;;;;;;;;;;;;;;5.91;79.14;97044.91;4946381;29;20048;-73
2022/03/17 04:22:15;;;;;;;;;;;;;;;5.90;79.44;97040.72;4944910;29;20360;-72
2022/03/17 04:24:42;;;;;;;;;;;;;;;5.91;79.18;97044.91;4952881;29;19955;-73
2022/03/17 04:27:08;;;;;;;;;;;;;;;5.90;79.26;97049.31;4944551;29;20408;-73
2022/03/17 04:29:34;;;;;;;;;;;;;;;5.90;79.37;97044.13;4945553;29;19966;-73
2022/03/17 04:32:00;;;;;;;;;;;;;;;5.90;79.53;97044.13;4948675;29;19952;-72
2022/03/17 04:34:25;;;;;;;;;;;;;;;5.91;79.52;97047.53;4947217;29;20011;-73
2022/03/17 04:36:51;;;;;;;;;;;;;;;5.89;79.51;97045.09;4942343;29;20010;-73
2022/03/17 04:39:17;;;;;;;;;;;;;;;5.91;79.41;97047.53;4946101;29;20013;-72
2022/03/17 04:41:43;;;;;;;;;;;;;;;5.91;79.64;97044.91;4951852;29;20061;-73
2022/03/17 04:44:09;;;;;;;;;;;;;;;5.90;79.73;97051.94;4946039;29;19997;-73
2022/03/17 04:46:35;;;;;;;;;;;;;;;5.90;79.81;97049.31;4945320;29;19963;-72
2022/03/17 04:49:01;;;;;;;;;;;;;;;5.92;80.02;97061.34;4943593;29;19954;-73
2022/03/17 04:51:28;;;;;;;;;;;;;;;5.92;79.89;97056.13;4947708;29;19964;-73
2022/03/17 04:53:54;;;;;;;;;;;;;;;5.92;80.00;97059.53;4947700;29;20430;-73
2022/03/17 04:56:20;;;;;;;;;;;;;;;5.93;80.25;97057.78;4949297;29;20001;-73
2022/03/17 04:58:46;;;;;;;;;;;;;;;5.94;80.03;97069.78;4946384;29;19974;-73
2022/03/17 05:01:12;;;;;;;;;;;;;;;5.94;80.17;97068.00;4941333;29;19954;-73
2022/03/17 05:03:39;;;;;;;;;;;;;;;5.95;80.07;97077.47;4943147;29;19961;-72
2022/03/17 05:06:05;;;;;;;;;;;;;;;5.95;80.27;97066.25;4941695;29;19958;-73
2022/03/17 05:08:34;;;;;;;;;;;;;;;5.94;80.16;97075.81;4949321;29;19961;-73
2022/03/17 05:11:01;;;;;;;;;;;;;;;5.94;80.14;97088.00;4949905;29;19957;-73
2022/03/17 05:13:27;;;;;;;;;;;;;;;5.94;80.29;97085.41;4941669;29;19965;-73
2022/03/17 05:15:53;;;;;;;;;;;;;;;5.94;80.22;97088.81;4944585;29;19955;-73
2022/03/17 05:18:19;;;;;;;;;;;;;;;5.95;80.55;97094.88;4945823;29;19991;-72
2022/03/17 05:20:46;;;;;;;;;;;;;;;5.95;80.63;97085.28;4948263;29;19952;-74
2022/03/17 05:23:13;;;;;;;;;;;;;;;5.96;80.80;97088.69;4948726;29;20457;-72
2022/03/17 05:25:42;;;;;;;;;;;;;;;5.97;80.71;97090.31;4941578;29;19984;-72
2022/03/17 05:28:08;;;;;;;;;;;;;;;5.98;80.80;97086.72;4928437;29;19960;-72
2022/03/17 05:30:38;;;;;;;;;;;;;;;5.98;80.46;97087.53;4932757;29;20407;-73
2022/03/17 05:33:05;;;;;;;;;;;;;;;6.00;81.09;97084.75;4941500;29;19955;-73
2022/03/17 05:35:31;;;;;;;;;;;;;;;6.00;81.24;97085.56;4945410;29;19948;-73
2022/03/17 05:37:57;;;;;;;;;;;;;;;6.01;81.40;97089.78;4946465;29;19959;-74
2022/03/17 05:40:23;;;;;;;;;;;;;;;6.04;81.38;97099.06;4945139;29;20018;-72
2022/03/17 05:42:54;;;;;;;;;;;;;;;6.08;82.22;97108.13;4945117;29;19970;-73
2022/03/17 05:45:20;;;;;;;;;;;;;;;6.08;82.12;97113.34;4952257;29;20328;-74
2022/03/17 05:47:48;;;;;;;;;;;;;;;6.08;82.28;97100.31;4947157;29;19996;-73
2022/03/17 05:50:15;;;;;;;;;;;;;;;6.03;82.51;97115.66;4947711;29;19953;-74
2022/03/17 05:52:42;;;;;;;;;;;;;;;6.01;81.77;97118.44;4951091;29;19953;-73
2022/03/17 05:55:09;;;;;;;;;;;;;;;5.98;81.18;97117.97;4952137;29;20305;-74
2022/03/17 05:57:36;;;;;;;;;;;;;;;5.98;80.64;97118.75;4948369;29;20454;-74
2022/03/17 06:00:04;;;;;;;;;;;;;;;5.97;80.66;97113.75;4946833;29;19966;-74
2022/03/17 06:02:30;;;;;;;;;;;;;;;5.93;80.35;97112.44;4946397;29;19957;-73
2022/03/17 06:04:56;;;;;;;;;;;;;;;5.80;79.46;97113.00;4954325;29;19956;-74
2022/03/17 06:07:22;;;;;;;;;;;;;;;5.62;80.83;97105.44;4947656;29;20375;-73
2022/03/17 06:09:48;;;;;;;;;;;;;;;5.59;81.23;97116.19;4947726;29;20469;-72
2022/03/17 06:12:15;;;;;;;;;;;;;;;5.63;81.93;97114.88;4949699;29;19954;-73
2022/03/17 06:14:44;;;;;;;;;;;;;;;5.67;81.64;97119.56;4946327;29;19957;-73
2022/03/17 06:17:12;;;;;;;;;;;;;;;5.73;81.95;97127.66;4951093;29;19970;-73
2022/03/17 06:19:38;;;;;;;;;;;;;;;5.75;81.80;97136.91;4950165;29;19969;-73
2022/03/17 06:22:04;;;;;;;;;;;;;;;5.79;81.79;97148.59;4946719;29;19951;-73
2022/03/17 06:24:30;;;;;;;;;;;;;;;5.81;81.80;97140.63;4949285;29;20001;-73
2022/03/17 06:26:56;;;;;;;;;;;;;;;5.84;81.88;97142.91;4926156;29;19988;-72
2022/03/17 06:29:22;;;;;;;;;;;;;;;5.85;81.63;97145.31;4945612;29;19964;-72
2022/03/17 06:31:48;;;;;;;;;;;;;;;5.89;81.91;97159.63;4951512;29;20010;-72
2022/03/17 06:34:13;;;;;;;;;;;;;;;5.93;81.71;97169.72;4947572;29;20010;-72
2022/03/17 06:36:39;;;;;;;;;;;;;;;5.97;81.40;97163.22;4944867;29;19969;-72
2022/03/17 06:39:05;;;;;;;;;;;;;;;6.00;81.74;97174.09;4948621;29;19970;-72
2022/03/17 06:41:31;;;;;;;;;;;;;;;6.02;81.66;97171.31;4943010;29;19992;-72
2022/03/17 06:43:57;;;;;;;;;;;;;;;6.06;81.53;97162.19;4949173;29;19954;-73
2022/03/17 06:46:23;;;;;;;;;;;;;;;6.09;81.45;97167.06;4950805;29;19964;-72
2022/03/17 06:48:49;;;;;;;;;;;;;;;6.11;81.47;97170.31;4948376;29;20017;-72
2022/03/17 06:51:14;;;;;;;;;;;;;;;6.15;81.62;97170.75;4942879;29;20016;-72
2022/03/17 06:53:40;;;;;;;;;;;;;;;6.17;81.59;97166.19;4953671;29;19956;-72
2022/03/17 06:56:06;;;;;;;;;;;;;;;6.19;81.71;97167.63;4946379;29;20370;-72
2022/03/17 06:58:32;;;;;;;;;;;;;;;6.22;81.67;97175.13;4947357;29;20356;-72
2022/03/17 07:00:58;;;;;;;;;;;;;;;6.25;81.31;97176.56;4945656;29;19997;-72
2022/03/17 07:03:24;;;;;;;;;;;;;;;6.28;81.68;97181.44;4949717;29;20035;-72
2022/03/17 07:05:49;;;;;;;;;;;;;;;6.32;82.05;97195.75;4947847;29;19956;-72
2022/03/17 07:08:15;;;;;;;;;;;;;;;6.34;82.72;97192.94;4946054;29;20361;-72
2022/03/17 07:10:41;;;;;;;;;;;;;;;6.36;82.22;97202.19;4952168;29;20379;-73
2022/03/17 07:13:07;;;;;;;;;;;;;;;6.40;82.10;97206.09;4946195;29;20025;-72
2022/03/17 07:15:34;;;;;;;;;;;;;;;6.44;82.08;97202.16;4943906;29;19998;-73
2022/03/17 07:18:00;;;;;;;;;;;;;;;6.48;82.02;97200.03;4946665;29;19964;-72
2022/03/17 07:20:26;;;;;;;;;;;;;;;6.52;81.77;97213.53;4948557;29;20050;-72
2022/03/17 07:22:52;;;;;;;;;;;;;;;6.54;81.56;97214.16;4950628;29;19952;-72
2022/03/17 07:25:18;;;;;;;;;;;;;;;6.60;81.54;97222.09;4949968;29;19983;-72
2022/03/17 07:27:45;;;;;;;;;;;;;;;6.60;81.36;97216.06;4944724;29;20008;-73
2022/03/17 07:30:12;;;;;;;;;;;;;;;6.57;81.33;97222.44;4946043;29;20338;-73
2022/03/17 07:32:38;;;;;;;;;;;;;;;6.55;81.09;97224.44;4950164;29;19947;-73
2022/03/17 07:35:04;;;;;;;;;;;;;;;6.57;81.11;97227.63;4949965;29;19961;-73
2022/03/17 07:37:30;;;;;;;;;;;;;;;6.56;81.77;97235.66;4946568;29;20333;-72
2022/03/17 07:39:56;;;;;;;;;;;;;;;6.53;81.77;97229.00;4944017;29;19975;-72
2022/03/17 07:42:22;;;;;;;;;;;;;;;6.54;81.60;97225.38;4952623;29;19948;-72
2022/03/17 07:44:48;;;;;;;;;;;;;;;6.55;81.88;97224.44;4949829;29;19957;-72
2022/03/17 07:47:14;;;;;;;;;;;;;;;6.58;81.88;97239.69;4945474;29;20438;-71
2022/03/17 07:49:40;;;;;;;;;;;;;;;6.64;82.12;97238.22;4944778;29;20326;-72
2022/03/17 07:52:07;;;;;;;;;;;;;;;6.69;82.03;97247.09;4947726;29;19961;-72
2022/03/17 07:54:34;;;;;;;;;;;;;;;6.75;82.10;97235.19;4950782;29;19963;-72
2022/03/17 07:57:01;;;;;;;;;;;;;;;6.94;89.49;97244.34;4946564;29;20352;-72
2022/03/17 07:59:27;;;;;;;;;;;;;;;7.48;88.70;97235.56;4941703;29;19971;-72
2022/03/17 08:01:53;;;;;;;;;;;;;;;8.01;85.30;97236.25;4947128;29;19951;-72
2022/03/17 08:04:19;;;;;;;;;;;;;;;8.23;80.71;97229.31;4947556;29;20054;-72
2022/03/17 08:06:45;;;;;;;;;;;;;;;8.25;78.97;97232.56;4949367;28;19951;-72
2022/03/17 08:09:11;;;;;;;;;;;;;;;8.19;78.37;97243.72;4946788;29;19959;-73
2022/03/17 08:11:36;;;;;;;;;;;;;;;8.04;78.54;97243.75;4944133;29;19958;-72
2022/03/17 08:14:02;;;;;;;;;;;;;;;7.92;78.67;97251.22;4946540;29;20329;-72
2022/03/17 08:16:28;;;;;;;;;;;;;;;7.80;79.11;97250.06;4944789;29;19971;-72
2022/03/17 08:18:54;;;;;;;;;;;;;;;7.71;79.62;97256.38;4946271;29;20461;-73
2022/03/17 08:21:20;;;;;;;;;;;;;;;7.60;79.77;97264.63;4948068;29;19964;-72
2022/03/17 08:23:46;;;;;;;;;;;;;;;7.52;79.81;97263.72;4946930;29;20437;-72
2022/03/17 08:26:13;;;;;;;;;;;;;;;7.47;79.95;97268.66;4951589;29;19978;-72
2022/03/17 08:28:38;;;;;;;;;;;;;;;7.42;80.00;97271.00;4946382;29;20406;-72
2022/03/17 08:31:04;;;;;;;;;;;;;;;7.34;80.81;97276.28;4946247;29;20009;-72
2022/03/17 08:33:30;;;;;;;;;;;;;;;7.24;81.18;97283.53;4942967;29;19968;-72
2022/03/17 08:35:56;;;;;;;;;;;;;;;7.12;81.21;97280.56;4945389;29;19962;-72
2022/03/17 08:38:22;;;;;;;;;;;;;;;7.09;81.19;97276.47;4946719;29;19949;-72
2022/03/17 08:40:48;;;;;;;;;;;;;;;7.06;81.46;97289.06;4947352;29;19975;-72
2022/03/17 08:43:14;;;;;;;;;;;;;;;7.04;81.93;97286.63;4943534;29;20087;-72
2022/03/17 08:51:10;;;;;;;;;;;;;;;7.19;81.42;97286.69;4943849;29;19956;-72
2022/03/17 08:53:36;;;;;;;;;;;;;;;7.20;81.83;97293.53;4941717;29;19955;-72
2022/03/17 08:56:03;;;;;;;;;;;;;;;7.20;82.37;97295.31;4945451;29;19956;-72
2022/03/17 08:58:29;;;;;;;;;;;;;;;7.48;84.93;97295.59;4950883;29;20432;-72
2022/03/17 09:00:55;;;;;;;;;;;;;;;7.65;81.67;97296.25;4939407;29;19959;-72
2022/03/17 09:03:21;;;;;;;;;;;;;;;7.71;80.54;97285.09;4949824;29;19956;-72
2022/03/17 09:05:47;;;;;;;;;;;;;;;7.73;80.37;97291.75;4945809;29;19999;-72
2022/03/17 09:08:13;;;;;;;;;;;;;;;7.70;79.88;97286.88;4942582;29;19952;-72
2022/03/17 09:10:39;;;;;;;;;;;;;;;7.72;80.15;97302.34;4942942;29;20009;-72
2022/03/17 09:13:07;;;;;;;;;;;;;;;7.75;80.51;97293.34;4941362;29;19958;-72
2022/03/17 09:15:33;;;;;;;;;;;;;;;7.76;80.59;97300.22;4948273;29;19954;-72
2022/03/17 09:17:59;;;;;;;;;;;;;;;7.79;80.66;97302.44;4946575;28;20342;-72
2022/03/17 09:20:25;;;;;;;;;;;;;;;7.80;80.31;97304.88;4945033;29;19979;-72
2022/03/17 09:22:52;;;;;;;;;;;;;;;7.81;80.63;97309.13;4948378;29;19960;-72
2022/03/17 09:25:23;;;;;;;;;;;;;;;7.97;85.06;97302.91;4948704;29;20345;-72
2022/03/17 09:27:50;;;;;;;;;;;;;;;8.39;83.83;97300.66;4949008;29;19957;-71
2022/03/17 09:30:16;;;;;;;;;;;;;;;8.78;81.12;97294.25;4951369;29;20321;-71
2022/03/17 09:32:41;;;;;;;;;;;;;;;8.85;77.34;97287.31;4949935;29;19954;-71
2022/03/17 09:35:08;;;;;;;;;;;;;;;8.76;77.28;97297.09;4948558;29;20007;-71
2022/03/17 09:37:34;;;;;;;;;;;;;;;8.70;78.21;97300.44;4955065;29;19966;-71
2022/03/17 09:40:00;;;;;;;;;;;;;;;8.62;77.82;97300.53;4950600;29;20464;-71
2022/03/17 09:42:26;;;;;;;;;;;;;;;8.54;78.08;97299.63;4927637;29;19957;-71
2022/03/17 09:44:55;;;;;;;;;;;;;;;8.47;77.57;97292.72;4950149;29;19960;-71
2022/03/17 09:47:22;;;;;;;;;;;;;;;8.37;78.21;97298.22;4950709;29;19961;-72
2022/03/17 09:49:49;;;;;;;;;;;;;;;8.31;78.34;97301.53;4953228;29;20520;-73
2022/03/17 09:52:17;;;;;;;;;;;;;;;8.28;77.87;97304.53;4949235;29;20417;-72
2022/03/17 09:54:47;;;;;;;;;;;;;;;8.21;77.71;97295.78;4932697;29;19955;-71
2022/03/17 09:57:16;;;;;;;;;;;;;;;8.20;77.56;97302.03;4949092;29;20342;-71
2022/03/17 09:59:43;;;;;;;;;;;;;;;8.14;78.49;97303.53;4946558;29;19971;-71
2022/03/17 10:02:12;;;;;;;;;;;;;;;8.16;79.29;97301.56;4953919;29;20355;-72
2022/03/17 10:04:43;;;;;;;;;;;;;;;8.24;79.19;97308.50;4948161;29;19971;-71
2022/03/17 10:07:09;;;;;;;;;;;;;;;8.33;79.39;97310.03;4944231;29;19961;-72
2022/03/17 10:09:35;;;;;;;;;;;;;;;8.41;78.84;97306.53;4947292;29;19956;-72
2022/03/17 10:12:02;;;;;;;;;;;;;;;8.49;79.88;97317.69;4952994;29;20492;-71
2022/03/17 10:14:38;;;;;;;;;;;;;;;8.58;79.41;97307.94;4948594;29;19953;-71
2022/03/17 10:17:05;;;;;;;;;;;;;;;8.62;78.52;97306.56;4942868;29;19950;-71
2022/03/17 10:19:32;;;;;;;;;;;;;;;8.65;78.29;97305.38;4930630;29;19981;-71
2022/03/17 10:22:07;;;;;;;;;;;;;;;8.70;78.05;97309.09;4952415;29;19962;-71
2022/03/17 10:24:36;;;;;;;;;;;;;;;8.77;78.76;97318.81;4947335;29;20313;-71
2022/03/17 10:27:03;;;;;;;;;;;;;;;8.83;77.88;97311.03;4949481;29;20015;-71
2022/03/17 10:29:30;;;;;;;;;;;;;;;8.86;77.41;97305.44;4948822;28;19957;-71
2022/03/17 10:32:04;;;;;;;;;;;;;;;8.88;78.14;97316.53;4944121;29;19956;-72
2022/03/17 10:34:31;;;;;;;;;;;;;;;8.91;77.89;97316.16;4948760;29;19960;-71
2022/03/17 10:37:07;;;;;;;;;;;;;;;8.97;78.74;97325.06;4954081;29;19960;-72
2022/03/17 10:39:36;;;;;;;;;;;;;;;9.02;77.64;97316.66;4945497;29;19967;-71
2022/03/17 10:42:08;;;;;;;;;;;;;;;8.98;77.39;97316.22;4945989;29;19954;-71
2022/03/17 10:44:34;;;;;;;;;;;;;;;8.94;77.75;97323.63;4949793;29;19954;-71
2022/03/17 10:47:02;;;;;;;;;;;;;;;8.93;78.29;97326.44;4953488;29;20392;-71
2022/03/17 10:49:28;;;;;;;;;;;;;;;8.94;78.33;97339.34;4944310;29;19968;-71
2022/03/17 10:51:55;;;;;;;;;;;;;;;9.00;78.92;97343.00;4948421;29;20325;-71
2022/03/17 10:54:22;;;;;;;;;;;;;;;9.05;78.99;97350.28;4946890;29;19967;-71
2022/03/17 10:57:00;;;;;;;;;;;;;;;9.09;78.76;97348.91;4951872;29;20431;-71
2022/03/17 10:59:39;;;;;;;;;;;;;;;9.10;78.47;97353.97;4946553;29;20333;-71
2022/03/17 11:02:08;;;;;;;;;;;;;;;9.06;78.84;97351.91;4943937;29;20943;-71
2022/03/17 11:04:35;;;;;;;;;;;;;;;9.05;79.47;97358.97;4951026;29;19959;-71
2022/03/17 11:07:04;;;;;;;;;;;;;;;9.06;78.79;97359.78;4950023;29;19963;-71
2022/03/17 11:09:30;;;;;;;;;;;;;;;9.05;78.43;97372.06;4945049;29;19951;-71
2022/03/17 11:11:56;;;;;;;;;;;;;;;9.02;78.98;97367.16;4948601;29;19963;-71
2022/03/17 11:14:23;;;;;;;;;;;;;;;9.00;78.98;97373.59;4944968;29;20042;-71
2022/03/17 11:16:50;;;;;;;;;;;;;;;8.98;79.23;97371.16;4948031;29;19960;-71
2022/03/17 11:19:17;;;;;;;;;;;;;;;9.00;79.23;97377.00;4950348;29;19958;-72
2022/03/17 11:21:48;;;;;;;;;;;;;;;9.01;79.10;97378.66;4932038;29;19961;-71
2022/03/17 11:24:20;;;;;;;;;;;;;;;9.01;79.19;97383.88;4950607;29;20408;-71
2022/03/17 11:26:47;;;;;;;;;;;;;;;9.09;79.64;97382.94;4946104;29;19988;-71
2022/03/17 11:29:13;;;;;;;;;;;;;;;9.14;78.69;97377.97;4948669;29;20312;-71
2022/03/17 11:31:58;;;;;;;;;;;;;;;9.18;78.81;97374.00;4944981;29;19987;-71
2022/03/17 11:34:46;;;;;;;;;;;;;;;9.27;80.20;97375.47;4946955;29;19963;-71
2022/03/17 11:37:27;;;;;;;;;;;;;;;9.39;78.89;97380.25;4948021;29;19959;-71
2022/03/17 11:39:53;;;;;;;;;;;;;;;9.48;79.32;97377.28;4953454;29;19972;-71
2022/03/17 11:42:28;;;;;;;;;;;;;;;9.55;78.17;97377.34;4941918;29;19949;-71
2022/03/17 11:45:01;;;;;;;;;;;;;;;9.59;78.49;97373.34;4942110;29;19954;-71
2022/03/17 11:47:27;;;;;;;;;;;;;;;9.65;79.15;97385.69;4946852;29;19983;-71
2022/03/17 11:49:53;;;;;;;;;;;;;;;9.72;79.54;97386.59;4948552;29;19958;-72
2022/03/17 11:52:19;;;;;;;;;;;;;;;9.80;79.82;97380.38;4952078;29;20010;-71
2022/03/17 11:54:45;;;;;;;;;;;;;;;9.90;79.64;97386.09;4952142;29;19955;-71
2022/03/17 11:57:11;;;;;;;;;;;;;;;9.98;79.97;97387.78;4938813;29;19962;-71
2022/03/17 11:59:54;;;;;;;;;;;;;;;10.07;79.09;97386.63;4946073;29;19973;-71
2022/03/17 12:02:28;;;;;;;;;;;;;;;10.17;79.13;97388.91;4944106;29;19956;-71
2022/03/17 12:04:53;;;;;;;;;;;;;;;10.22;79.23;97391.75;4945816;29;19950;-71
2022/03/17 12:07:25;;;;;;;;;;;;;;;10.29;78.23;97399.66;4945722;29;19964;-71
2022/03/17 12:09:51;;;;;;;;;;;;;;;10.30;78.53;97390.84;4950937;29;19998;-71
2022/03/17 12:12:19;;;;;;;;;;;;;;;10.38;79.28;97403.00;4945804;29;19973;-71
2022/03/17 12:14:50;;;;;;;;;;;;;;;10.45;79.15;97396.78;4951252;29;20045;-72
2022/03/17 12:17:17;;;;;;;;;;;;;;;10.53;79.13;97401.84;4947497;29;19953;-71
2022/03/17 12:19:49;;;;;;;;;;;;;;;10.62;79.63;97402.50;4947362;29;20450;-71
2022/03/17 12:22:19;;;;;;;;;;;;;;;10.69;79.15;97397.31;4944432;29;20421;-71
2022/03/17 12:24:48;;;;;;;;;;;;;;;10.73;79.29;97390.66;4945938;29;19955;-71
2022/03/17 12:27:14;;;;;;;;;;;;;;;10.74;79.08;97403.56;4943292;29;19955;-71
2022/03/17 12:29:40;;;;;;;;;;;;;;;10.75;78.11;97391.25;4945694;29;19986;-71
2022/03/17 12:32:08;;;;;;;;;;;;;;;10.72;79.08;97408.22;4956087;29;19966;-71
2022/03/17 12:34:34;;;;;;;;;;;;;;;10.70;79.44;97402.34;4945799;29;19959;-71
2022/03/17 12:37:01;;;;;;;;;;;;;;;10.68;79.36;97404.34;4943820;29;19962;-71
2022/03/17 12:39:28;;;;;;;;;;;;;;;10.63;79.42;97405.97;4945641;29;19955;-71
2022/03/17 12:41:56;;;;;;;;;;;;;;;10.61;79.69;97410.59;4946773;29;19963;-71
2022/03/17 12:44:23;;;;;;;;;;;;;;;10.57;79.32;97410.97;4944256;29;19954;-71
2022/03/17 12:46:49;;;;;;;;;;;;;;;10.56;79.52;97408.53;4944441;29;20446;-71
2022/03/17 12:49:15;;;;;;;;;;;;;;;10.57;80.10;97412.78;4946827;29;19967;-71
2022/03/17 12:51:41;;;;;;;;;;;;;;;10.55;78.67;97410.34;4949566;29;19957;-71
2022/03/17 12:54:06;;;;;;;;;;;;;;;10.57;80.43;97412.78;4947853;29;20392;-71
2022/03/17 12:56:48;;;;;;;;;;;;;;;10.57;79.81;97408.34;4945587;29;19975;-71
2022/03/17 12:59:14;;;;;;;;;;;;;;;10.58;79.67;97409.13;4944598;29;19950;-71
2022/03/17 13:01:44;;;;;;;;;;;;;;;10.57;78.57;97410.16;4946192;29;19984;-71
2022/03/17 13:04:10;;;;;;;;;;;;;;;10.55;80.10;97420.03;4927903;29;19959;-71
2022/03/17 13:06:54;;;;;;;;;;;;;;;10.55;78.90;97409.53;4944074;29;19955;-72
2022/03/17 13:09:25;;;;;;;;;;;;;;;10.55;78.74;97414.78;4944391;29;19954;-71